createdAt,value
2023-03-12T00:01:30.298Z,4.00
2023-03-12T00:04:03.212Z,3.35
2023-03-12T00:06:35.136Z,4.08
2023-03-12T00:09:07.754Z,3.45
2023-03-12T00:11:40.352Z,4.28
2023-03-12T00:14:12.434Z,4.58
2023-03-12T00:16:44.683Z,4.33
2023-03-12T00:19:16.748Z,4.40
2023-03-12T00:21:49.000Z,4.22
2023-03-12T00:24:21.251Z,3.87
2023-03-12T00:26:53.142Z,3.90
2023-03-12T00:29:25.162Z,3.90
2023-03-12T00:31:57.482Z,3.80
2023-03-12T00:34:29.578Z,3.80
2023-03-12T00:37:02.221Z,3.47
2023-03-12T00:39:35.222Z,2.90
2023-03-12T00:42:07.576Z,3.37
2023-03-12T00:44:40.180Z,2.60
2023-03-12T00:47:12.397Z,2.37
2023-03-12T00:49:44.624Z,3.00
2023-03-12T00:52:17.119Z,2.83
2023-03-12T00:54:49.466Z,2.60
2023-03-12T00:57:21.677Z,2.98
2023-03-12T00:59:53.748Z,3.20
2023-03-12T01:02:25.672Z,2.40
2023-03-12T01:04:58.210Z,2.90
2023-03-12T01:07:30.381Z,1.67
2023-03-12T01:10:02.854Z,3.10
2023-03-12T01:12:34.742Z,3.08
2023-03-12T01:15:07.585Z,4.03
2023-03-12T01:17:40.342Z,3.00
2023-03-12T01:20:12.926Z,3.27
2023-03-12T01:22:44.826Z,2.00
2023-03-12T01:25:16.990Z,3.90
2023-03-12T01:27:48.850Z,4.47
2023-03-12T01:30:21.781Z,4.37
2023-03-12T01:32:53.989Z,4.67
2023-03-12T01:35:26.812Z,4.97
2023-03-12T01:37:59.056Z,4.97
2023-03-12T01:40:32.391Z,3.40
2023-03-12T01:43:31.741Z,5.22
2023-03-12T01:46:24.437Z,6.78
2023-03-12T01:49:04.099Z,6.55
2023-03-12T01:51:47.556Z,7.05
2023-03-12T01:54:25.659Z,6.37
2023-03-12T01:56:58.666Z,8.15
2023-03-12T01:59:39.170Z,7.65
2023-03-12T02:02:11.663Z,7.95
2023-03-12T02:04:46.936Z,9.08
2023-03-12T02:07:19.991Z,9.28
2023-03-12T02:09:52.199Z,8.83
2023-03-12T02:12:24.582Z,8.85
2023-03-12T02:14:56.598Z,9.18
2023-03-12T02:17:28.756Z,8.43
2023-03-12T02:20:24.410Z,8.60
2023-03-12T02:23:12.912Z,8.90
2023-03-12T02:25:48.118Z,9.93
2023-03-12T02:28:23.797Z,9.30
2023-03-12T02:30:58.737Z,8.60
2023-03-12T02:33:30.917Z,10.68
2023-03-12T02:36:03.023Z,10.32
2023-03-12T02:38:46.980Z,11.43
2023-03-12T02:41:37.305Z,9.88
2023-03-12T02:44:12.397Z,9.55
2023-03-12T02:46:47.220Z,10.28
2023-03-12T02:49:21.582Z,10.82
2023-03-12T02:51:54.061Z,10.13
2023-03-12T02:54:26.763Z,10.93
2023-03-12T02:56:59.278Z,10.08
2023-03-12T02:59:32.277Z,10.67
2023-03-12T03:02:05.199Z,9.25
2023-03-12T03:04:37.256Z,9.03
2023-03-12T03:07:09.196Z,9.05
2023-03-12T03:09:41.530Z,9.25
2023-03-12T03:12:13.573Z,9.80
2023-03-12T03:14:46.394Z,10.55
2023-03-12T03:17:18.403Z,9.70
2023-03-12T03:19:50.519Z,10.13
2023-03-12T03:22:24.598Z,9.38
2023-03-12T03:24:56.846Z,8.50
2023-03-12T03:27:28.903Z,10.15
2023-03-12T03:30:02.254Z,9.83
2023-03-12T03:32:35.825Z,11.85
2023-03-12T03:35:08.335Z,20.77
2023-03-12T03:37:40.311Z,10.88
2023-03-12T03:40:13.692Z,9.40
2023-03-12T03:42:45.906Z,11.00
2023-03-12T03:45:19.758Z,10.58
2023-03-12T03:47:52.334Z,11.88
2023-03-12T03:50:25.853Z,9.53
2023-03-12T03:52:58.118Z,11.25
2023-03-12T03:55:31.259Z,12.25
2023-03-12T03:58:03.434Z,10.82
2023-03-12T04:00:35.810Z,11.93
2023-03-12T04:03:08.309Z,12.37
2023-03-12T04:05:40.817Z,12.60
2023-03-12T04:08:14.510Z,12.73
2023-03-12T04:10:47.005Z,11.35
2023-03-12T04:13:19.328Z,11.90
2023-03-12T04:15:53.683Z,13.70
2023-03-12T04:18:26.020Z,13.75
2023-03-12T04:20:58.998Z,12.82
2023-03-12T04:23:31.661Z,12.70
2023-03-12T04:26:05.210Z,9.15
2023-03-12T04:28:38.621Z,11.33
2023-03-12T04:31:13.461Z,12.68
2023-03-12T04:33:50.320Z,12.63
2023-03-12T04:36:23.748Z,12.18
2023-03-12T04:38:57.901Z,12.07
2023-03-12T04:41:36.007Z,11.70
2023-03-12T04:44:12.572Z,12.55
2023-03-12T04:49:17.483Z,11.08
2023-03-12T04:51:50.318Z,33.58
2023-03-12T04:54:23.847Z,14.15
2023-03-12T04:56:56.400Z,11.08
2023-03-12T04:59:28.291Z,14.93
2023-03-12T05:02:00.637Z,13.13
2023-03-12T05:04:33.919Z,13.17
2023-03-12T05:07:06.209Z,14.50
2023-03-12T05:09:38.260Z,14.70
2023-03-12T05:12:11.000Z,13.68
2023-03-12T05:14:43.261Z,15.03
2023-03-12T05:17:16.036Z,14.60
2023-03-12T05:19:48.554Z,14.70
2023-03-12T05:22:21.014Z,14.55
2023-03-12T05:24:53.493Z,13.35
2023-03-12T05:27:26.381Z,12.90
2023-03-12T05:29:59.357Z,13.85
2023-03-12T05:32:32.040Z,14.18
2023-03-12T05:35:06.121Z,14.55
2023-03-12T05:37:39.013Z,13.62
2023-03-12T05:40:13.236Z,13.00
2023-03-12T05:42:45.496Z,13.58
2023-03-12T05:45:19.355Z,16.50
2023-03-12T05:47:52.644Z,13.50
2023-03-12T05:50:26.350Z,15.25
2023-03-12T05:52:58.677Z,13.93
2023-03-12T05:55:31.484Z,13.45
2023-03-12T05:58:05.197Z,12.55
2023-03-12T06:00:38.500Z,11.30
2023-03-12T06:03:12.595Z,12.53
2023-03-12T06:05:47.681Z,10.15
2023-03-12T06:08:19.783Z,10.85
2023-03-12T06:10:54.905Z,11.25
2023-03-12T06:13:28.637Z,12.15
2023-03-12T06:16:07.520Z,10.90
2023-03-12T06:18:40.392Z,11.55
2023-03-12T06:21:15.968Z,12.37
2023-03-12T06:23:50.214Z,13.78
2023-03-12T06:26:25.493Z,9.98
2023-03-12T06:28:58.010Z,12.28
2023-03-12T06:31:30.251Z,13.43
2023-03-12T06:34:02.347Z,12.90
2023-03-12T06:36:34.752Z,12.45
2023-03-12T06:39:10.009Z,13.60
2023-03-12T06:41:42.411Z,11.35
2023-03-12T06:44:14.299Z,12.93
2023-03-12T06:46:46.508Z,12.33
2023-03-12T06:49:18.701Z,11.85
2023-03-12T06:51:50.989Z,13.90
2023-03-12T06:54:23.789Z,13.78
2023-03-12T06:56:56.461Z,13.50
2023-03-12T06:59:29.360Z,13.18
2023-03-12T07:02:01.747Z,14.53
2023-03-12T07:04:33.986Z,13.53
2023-03-12T07:07:08.727Z,13.15
2023-03-12T07:12:11.873Z,13.85
2023-03-12T07:14:44.204Z,14.60
2023-03-12T07:17:16.449Z,14.13
2023-03-12T07:19:49.839Z,14.47
2023-03-12T07:22:22.173Z,14.63
2023-03-12T07:24:54.136Z,14.90
2023-03-12T07:27:26.421Z,15.25
2023-03-12T07:29:58.899Z,14.00
2023-03-12T07:32:33.690Z,15.63
2023-03-12T07:35:06.926Z,14.80
2023-03-12T07:37:39.944Z,14.65
2023-03-12T07:40:12.893Z,14.40
2023-03-12T07:42:45.753Z,14.90
2023-03-12T07:45:17.916Z,14.80
2023-03-12T07:47:50.621Z,14.45
2023-03-12T07:50:22.797Z,14.55
2023-03-12T07:52:55.206Z,15.28
2023-03-12T07:55:28.093Z,14.20
2023-03-12T07:58:00.457Z,15.30
2023-03-12T08:00:33.265Z,12.28
2023-03-12T08:03:05.903Z,12.95
2023-03-12T08:05:38.167Z,13.62
2023-03-12T08:08:10.564Z,14.55
2023-03-12T08:10:42.633Z,12.40
2023-03-12T08:13:14.825Z,13.00
2023-03-12T08:15:47.302Z,12.45
2023-03-12T08:18:20.785Z,11.43
2023-03-12T08:20:54.972Z,11.68
2023-03-12T08:23:27.412Z,11.70
2023-03-12T08:26:00.870Z,10.05
2023-03-12T08:28:32.882Z,12.78
2023-03-12T08:31:05.398Z,10.08
2023-03-12T08:33:39.405Z,11.15
2023-03-12T08:36:11.962Z,10.43
2023-03-12T08:38:44.099Z,10.60
2023-03-12T08:41:16.223Z,10.93
2023-03-12T08:43:48.409Z,10.75
2023-03-12T08:46:20.636Z,11.20
2023-03-12T08:48:53.216Z,10.08
2023-03-12T08:51:25.175Z,8.88
2023-03-12T08:53:57.057Z,10.00
2023-03-12T08:56:29.277Z,10.70
2023-03-12T08:59:01.485Z,10.13
2023-03-12T09:01:34.357Z,10.60
2023-03-12T09:04:06.845Z,10.88
2023-03-12T09:06:39.336Z,10.78
2023-03-12T09:09:11.586Z,8.15
2023-03-12T09:11:44.172Z,9.38
2023-03-12T09:14:57.514Z,9.53
2023-03-12T09:16:50.253Z,9.67
2023-03-12T09:19:22.595Z,9.63
2023-03-12T09:21:54.692Z,9.23
2023-03-12T09:24:27.113Z,10.68
2023-03-12T09:26:59.718Z,9.95
2023-03-12T09:29:33.788Z,9.03
2023-03-12T09:32:06.244Z,9.38
2023-03-12T09:34:38.342Z,8.88
2023-03-12T09:37:10.261Z,8.30
2023-03-12T09:39:42.493Z,9.03
2023-03-12T09:42:18.322Z,8.23
2023-03-12T09:44:52.002Z,8.95
2023-03-12T09:47:36.113Z,8.30
2023-03-12T09:50:11.125Z,8.53
2023-03-12T09:52:46.228Z,9.03
2023-03-12T09:55:21.671Z,9.75
2023-03-12T09:57:55.781Z,8.10
2023-03-12T10:00:33.750Z,8.23
2023-03-12T10:03:17.723Z,8.28
2023-03-12T10:05:55.675Z,7.57
2023-03-12T10:08:42.662Z,8.45
2023-03-12T10:11:33.108Z,7.95
2023-03-12T10:14:23.792Z,9.15
2023-03-12T10:17:20.203Z,8.85
2023-03-12T10:20:00.928Z,9.78
2023-03-12T10:22:39.386Z,7.85
2023-03-12T10:25:43.113Z,9.33
2023-03-12T10:28:24.017Z,8.13
2023-03-12T10:30:59.286Z,6.40
2023-03-12T10:33:46.198Z,6.20
2023-03-12T10:36:21.757Z,5.37
2023-03-12T10:38:53.883Z,5.25
2023-03-12T10:41:28.879Z,3.33
2023-03-12T10:44:06.886Z,4.40
2023-03-12T10:46:42.106Z,4.47
2023-03-12T10:49:26.368Z,4.95
2023-03-12T10:52:05.254Z,3.90
2023-03-12T10:54:41.093Z,4.72
2023-03-12T10:57:15.577Z,4.80
2023-03-12T10:59:51.916Z,4.40
2023-03-12T11:02:43.125Z,4.10
2023-03-12T11:05:32.966Z,4.40
2023-03-12T11:08:07.622Z,4.00
2023-03-12T11:10:48.097Z,4.75
2023-03-12T11:13:32.033Z,4.55
2023-03-12T11:16:19.064Z,4.22
2023-03-12T11:19:00.973Z,5.40
2023-03-12T11:21:40.356Z,4.70
2023-03-12T11:24:15.035Z,4.78
2023-03-12T11:26:52.942Z,4.83
2023-03-12T11:29:35.429Z,5.53
2023-03-12T11:32:37.608Z,4.55
2023-03-12T11:35:14.678Z,4.05
2023-03-12T11:38:04.719Z,4.40
2023-03-12T11:40:45.418Z,5.15
2023-03-12T11:43:40.001Z,2.60
2023-03-12T11:46:24.453Z,1.27
2023-03-12T11:49:28.028Z,1.05
2023-03-12T11:52:22.301Z,0.80
2023-03-12T11:55:00.158Z,0.42
2023-03-12T11:57:47.849Z,0.40
2023-03-12T12:00:22.469Z,0.62
2023-03-12T12:05:35.186Z,0.37
2023-03-12T12:08:35.202Z,1.02
2023-03-12T12:11:19.506Z,0.68
2023-03-12T12:14:18.110Z,0.55
2023-03-12T12:17:20.452Z,0.53
2023-03-12T12:20:00.890Z,0.53
2023-03-12T12:22:52.352Z,1.02
2023-03-12T12:25:36.632Z,0.80
2023-03-12T12:28:12.371Z,0.60
2023-03-12T12:30:56.487Z,0.78
2023-03-12T12:33:46.386Z,0.80
2023-03-12T12:36:19.886Z,0.70
2023-03-12T12:39:13.295Z,3.33
2023-03-12T12:41:51.564Z,0.90
2023-03-12T12:44:26.991Z,0.90
2023-03-12T12:47:02.579Z,1.02
2023-03-12T12:49:49.575Z,1.30
2023-03-12T12:52:23.510Z,0.60
2023-03-12T12:55:13.502Z,1.07
2023-03-12T12:57:57.205Z,1.07
2023-03-12T13:00:41.492Z,1.45
2023-03-12T13:05:59.689Z,0.40
2023-03-12T13:08:37.586Z,1.27
2023-03-12T13:11:30.358Z,0.80
2023-03-12T13:14:08.502Z,0.68
2023-03-12T13:16:45.822Z,0.98
2023-03-12T13:19:21.047Z,0.70
2023-03-12T13:22:08.151Z,0.55
2023-03-12T13:24:50.443Z,0.95
2023-03-12T13:27:27.941Z,0.62
2023-03-12T13:30:02.035Z,0.90
2023-03-12T13:32:39.972Z,2.72
2023-03-12T13:35:21.220Z,1.17
2023-03-12T13:37:56.548Z,1.27
2023-03-12T13:40:34.689Z,1.50
2023-03-12T13:43:18.229Z,1.62
2023-03-12T13:46:11.868Z,1.65
2023-03-12T13:48:49.046Z,1.05
2023-03-12T13:51:24.793Z,0.65
2023-03-12T13:54:04.698Z,0.50
2023-03-12T13:56:38.382Z,1.60
2023-03-12T13:59:13.380Z,0.93
2023-03-12T14:01:51.157Z,1.40
2023-03-12T14:04:35.369Z,1.10
2023-03-12T14:07:31.402Z,1.42
2023-03-12T14:10:08.831Z,1.30
2023-03-12T14:12:59.758Z,1.47
2023-03-12T14:15:51.433Z,0.80
2023-03-12T14:18:26.412Z,0.98
2023-03-12T14:21:00.784Z,1.35
2023-03-12T14:23:39.349Z,0.70
2023-03-12T14:26:18.861Z,1.00
2023-03-12T14:28:53.799Z,0.82
2023-03-12T14:31:28.190Z,0.82
2023-03-12T14:34:03.513Z,0.77
2023-03-12T14:36:47.358Z,0.68
2023-03-12T14:39:40.047Z,0.75
2023-03-12T14:42:13.862Z,1.10
2023-03-12T14:44:49.057Z,1.47
2023-03-12T14:47:21.266Z,1.20
2023-03-12T14:49:54.658Z,1.52
2023-03-12T14:52:30.408Z,2.30
2023-03-12T14:55:05.491Z,0.68
2023-03-12T14:57:37.721Z,1.50
2023-03-12T15:00:13.514Z,1.00
2023-03-12T15:02:45.898Z,1.27
2023-03-12T15:05:20.386Z,1.60
2023-03-12T15:07:54.874Z,0.93
2023-03-12T15:10:29.386Z,1.85
2023-03-12T15:13:04.282Z,1.20
2023-03-12T15:15:39.781Z,1.42
2023-03-12T15:18:23.690Z,0.95
2023-03-12T15:20:57.583Z,1.35
2023-03-12T15:23:32.845Z,1.07
2023-03-12T15:26:19.920Z,1.70
2023-03-12T15:29:08.306Z,1.27
2023-03-12T15:31:49.099Z,1.40
2023-03-12T15:34:38.795Z,1.32
2023-03-12T15:37:41.436Z,1.62
2023-03-12T15:40:28.540Z,1.30
2023-03-12T15:43:06.122Z,1.60
2023-03-12T15:45:39.877Z,0.80
2023-03-12T15:48:23.439Z,1.42
2023-03-12T15:50:55.839Z,1.57
2023-03-12T15:53:31.499Z,1.45
2023-03-12T15:56:06.493Z,1.25
2023-03-12T15:58:41.543Z,1.37
2023-03-12T16:01:15.902Z,1.30
2023-03-12T16:03:48.417Z,1.95
2023-03-12T16:06:25.873Z,1.87
2023-03-12T16:09:04.734Z,2.10
2023-03-12T16:11:38.950Z,1.62
2023-03-12T16:14:25.842Z,2.20
2023-03-12T16:16:58.653Z,1.50
2023-03-12T16:19:34.904Z,2.50
2023-03-12T16:22:07.276Z,2.60
2023-03-12T16:24:39.661Z,2.72
2023-03-12T16:27:18.042Z,2.20
2023-03-12T16:29:49.409Z,2.25
2023-03-12T16:32:22.536Z,1.95
2023-03-12T16:34:55.653Z,1.98
2023-03-12T16:37:32.976Z,1.65
2023-03-12T16:40:06.399Z,3.47
2023-03-12T16:42:39.705Z,2.10
2023-03-12T16:45:15.417Z,2.02
2023-03-12T16:47:49.024Z,2.02
2023-03-12T16:50:23.338Z,2.52
2023-03-12T16:52:56.667Z,3.20
2023-03-12T16:55:31.803Z,2.75
2023-03-12T16:58:05.574Z,4.22
2023-03-12T17:03:12.694Z,3.70
2023-03-12T17:05:45.564Z,2.30
2023-03-12T17:08:17.615Z,2.98
2023-03-12T17:10:50.065Z,2.35
2023-03-12T17:13:26.073Z,2.27
2023-03-12T17:15:58.920Z,3.87
2023-03-12T17:18:31.605Z,4.10
2023-03-12T17:21:04.118Z,2.50
2023-03-12T17:23:36.699Z,3.33
2023-03-12T17:26:09.780Z,3.17
2023-03-12T17:28:42.258Z,1.90
2023-03-12T17:31:14.558Z,3.02
2023-03-12T17:33:47.356Z,2.77
2023-03-12T17:36:19.646Z,1.95
2023-03-12T17:38:51.828Z,1.52
2023-03-12T17:41:26.773Z,2.17
2023-03-12T17:43:59.461Z,3.60
2023-03-12T17:46:34.771Z,2.92
2023-03-12T17:49:06.936Z,2.50
2023-03-12T17:51:39.166Z,2.50
2023-03-12T17:54:11.822Z,2.22
2023-03-12T17:56:43.858Z,1.87
2023-03-12T17:59:15.919Z,2.72
2023-03-12T18:01:48.225Z,2.80
2023-03-12T18:04:20.651Z,2.50
2023-03-12T18:06:52.727Z,1.15
2023-03-12T18:09:24.997Z,2.33
2023-03-12T18:11:57.103Z,2.40
2023-03-12T18:14:29.213Z,3.00
2023-03-12T18:17:01.357Z,2.12
2023-03-12T18:19:35.279Z,1.20
2023-03-12T18:22:07.360Z,2.33
2023-03-12T18:24:39.507Z,1.50
2023-03-12T18:27:11.895Z,1.67
2023-03-12T18:29:44.290Z,2.47
2023-03-12T18:32:16.470Z,2.33
2023-03-12T18:34:48.567Z,1.17
2023-03-12T18:37:21.611Z,1.82
2023-03-12T18:39:53.803Z,1.90
2023-03-12T18:42:25.902Z,1.67
2023-03-12T18:44:57.906Z,0.98
2023-03-12T18:47:29.705Z,1.60
2023-03-12T18:50:03.620Z,1.07
2023-03-12T18:52:36.220Z,1.90
2023-03-12T18:55:08.529Z,1.50
2023-03-12T18:57:47.711Z,1.47
2023-03-12T19:00:20.417Z,1.50
2023-03-12T19:02:52.549Z,1.10
2023-03-12T19:05:24.679Z,1.30
2023-03-12T19:07:56.715Z,1.60
2023-03-12T19:10:28.695Z,1.40
2023-03-12T19:13:00.785Z,1.02
2023-03-12T19:15:33.123Z,1.87
2023-03-12T19:18:05.229Z,1.20
2023-03-12T19:20:37.155Z,1.07
2023-03-12T19:23:09.083Z,1.30
2023-03-12T19:25:41.380Z,1.30
2023-03-12T19:28:13.753Z,0.50
2023-03-12T19:30:45.948Z,1.50
2023-03-12T19:33:18.204Z,0.95
2023-03-12T19:35:52.048Z,1.12
2023-03-12T19:40:57.608Z,1.17
2023-03-12T19:43:29.845Z,0.90
2023-03-12T19:46:01.998Z,1.17
2023-03-12T19:48:34.342Z,0.93
2023-03-12T19:51:07.886Z,1.98
2023-03-12T19:53:40.327Z,3.08
2023-03-12T19:56:12.159Z,1.02
2023-03-12T19:58:44.169Z,1.57
2023-03-12T20:01:16.176Z,2.22
2023-03-12T20:03:48.318Z,1.07
2023-03-12T20:06:20.614Z,1.47
2023-03-12T20:08:52.713Z,1.55
2023-03-12T20:11:24.755Z,1.42
2023-03-12T20:13:56.533Z,0.80
2023-03-12T20:16:28.560Z,0.85
2023-03-12T20:19:00.462Z,1.10
2023-03-12T20:21:32.655Z,0.60
2023-03-12T20:24:05.370Z,1.50
2023-03-12T20:26:41.526Z,2.02
2023-03-12T20:29:13.667Z,1.30
2023-03-12T20:31:45.743Z,1.10
2023-03-12T20:34:18.308Z,1.25
2023-03-12T20:36:50.484Z,1.30
2023-03-12T20:39:22.691Z,1.27
2023-03-12T20:41:54.908Z,1.42
2023-03-12T20:44:27.568Z,1.75
2023-03-12T20:47:00.014Z,1.50
2023-03-12T20:49:32.054Z,1.50
2023-03-12T20:52:04.414Z,2.90
2023-03-12T20:54:36.501Z,1.80
2023-03-12T20:57:08.710Z,2.20
2023-03-12T20:59:41.315Z,1.70
2023-03-12T21:02:17.066Z,1.57
2023-03-12T21:04:49.953Z,1.65
2023-03-12T21:07:22.566Z,1.30
2023-03-12T21:09:54.671Z,1.32
2023-03-12T21:12:26.604Z,1.45
2023-03-12T21:15:00.176Z,1.42
2023-03-12T21:17:38.269Z,1.20
2023-03-12T21:20:17.630Z,1.40
2023-03-12T21:22:49.999Z,0.90
2023-03-12T21:25:22.241Z,1.02
2023-03-12T21:27:55.915Z,1.10
2023-03-12T21:30:27.963Z,0.50
2023-03-12T21:33:00.336Z,0.65
2023-03-12T21:35:32.524Z,1.40
2023-03-12T21:38:04.618Z,1.62
2023-03-12T21:40:37.360Z,1.25
2023-03-12T21:43:09.263Z,1.50
2023-03-12T21:45:42.274Z,1.40
2023-03-12T21:48:14.786Z,14.23
2023-03-12T21:50:46.708Z,2.75
2023-03-12T21:53:23.746Z,4.40
2023-03-12T21:56:02.322Z,1.05
2023-03-12T21:58:37.891Z,0.62
2023-03-12T22:01:15.271Z,5.35
2023-03-12T22:03:48.052Z,3.52
2023-03-12T22:06:20.411Z,1.05
2023-03-12T22:08:52.538Z,3.72
2023-03-12T22:11:24.776Z,2.02
2023-03-12T22:13:57.881Z,0.90
2023-03-12T22:16:30.251Z,0.50
2023-03-12T22:19:02.468Z,2.75
2023-03-12T22:21:34.790Z,1.87
2023-03-12T22:24:07.104Z,1.90
2023-03-12T22:26:39.312Z,0.90
2023-03-12T22:29:11.562Z,0.70
2023-03-12T22:31:43.481Z,1.72
2023-03-12T22:34:15.523Z,0.95
2023-03-12T22:36:47.588Z,1.00
2023-03-12T22:39:19.739Z,0.80
2023-03-12T22:41:52.392Z,4.70
2023-03-12T22:44:24.374Z,3.95
2023-03-12T22:46:56.433Z,2.20
2023-03-12T22:49:28.388Z,2.50
2023-03-12T22:52:00.926Z,0.72
2023-03-12T22:54:33.574Z,1.05
2023-03-12T22:57:05.553Z,0.57
2023-03-12T22:59:38.425Z,2.20
2023-03-12T23:02:10.373Z,1.35
2023-03-12T23:04:42.676Z,1.40
2023-03-12T23:07:17.449Z,1.52
2023-03-12T23:09:49.798Z,1.65
2023-03-12T23:12:21.966Z,0.80
2023-03-12T23:14:54.690Z,1.00
2023-03-12T23:17:26.626Z,1.40
2023-03-12T23:19:58.603Z,1.90
2023-03-12T23:22:30.540Z,2.85
2023-03-12T23:25:02.533Z,4.12
2023-03-12T23:27:35.054Z,1.75
2023-03-12T23:30:08.197Z,1.05
2023-03-12T23:32:40.259Z,2.15
2023-03-12T23:35:12.549Z,0.72
2023-03-12T23:37:44.950Z,0.80
2023-03-12T23:40:17.574Z,1.25
2023-03-12T23:42:49.816Z,1.42
2023-03-12T23:45:22.156Z,0.98
2023-03-12T23:47:54.404Z,0.60
2023-03-12T23:50:26.419Z,0.60
2023-03-12T23:52:58.671Z,0.57
2023-03-12T23:55:31.024Z,0.42
2023-03-12T23:58:04.848Z,2.02
